Time;durP1;ratioP1;P1;durP2;ratioP2;P2;SDS_P1;SDS_P2;PMS_P1;PMS_P2;Temp;Humidity;BMP_temperature;BMP_pressure;BME280_temperature;BME280_humidity;BME280_pressure;Samples;Min_cycle;Max_cycle;Signal;HPM_P1;HPM_P2
2023/11/06 00:00:28;;;;;;;0.00;0.00;;;;;;;8.48;91.15;98068.09;4923096;28;20035;-76
2023/11/06 00:02:55;;;;;;;0.00;0.00;;;;;;;8.41;90.38;98056.81;4929278;28;20026;-75
2023/11/06 00:05:21;;;;;;;0.00;0.00;;;;;;;8.23;90.96;98033.28;4943921;28;20035;-76
2023/11/06 00:07:49;;;;;;;0.00;0.00;;;;;;;8.22;90.85;98046.09;4929122;28;21217;-74
2023/11/06 00:10:59;;;;;;;0.00;0.00;;;;;;;8.37;90.83;98077.59;4934172;28;20138;-75
2023/11/06 00:13:24;;;;;;;0.00;0.00;;;;;;;8.30;91.25;98069.06;4946662;28;20499;-77
2023/11/06 00:15:50;;;;;;;0.00;0.00;;;;;;;8.33;91.71;98076.63;4954924;28;20027;-77
2023/11/06 00:18:15;;;;;;;0.00;0.00;;;;;;;8.14;91.91;98055.00;4944030;28;20034;-76
2023/11/06 00:20:41;;;;;;;0.00;0.00;;;;;;;8.36;92.02;98076.00;4944199;28;20448;-78
2023/11/06 00:23:07;;;;;;;0.00;0.00;;;;;;;8.21;92.00;98061.63;4927215;28;21152;-77
2023/11/06 00:25:33;;;;;;;0.00;0.00;;;;;;;8.38;92.23;98081.91;4942129;28;20091;-77
2023/11/06 00:27:58;;;;;;;0.00;0.00;;;;;;;8.33;91.65;98074.69;4930643;28;20393;-78
2023/11/06 00:30:23;;;;;;;0.00;0.00;;;;;;;8.39;91.59;98078.88;4929397;28;20054;-77
2023/11/06 00:32:49;;;;;;;0.00;0.00;;;;;;;8.50;91.32;98084.94;4913647;29;20035;-77
2023/11/06 00:35:16;;;;;;;0.00;0.00;;;;;;;8.46;90.96;98050.47;4923786;28;20118;-77
2023/11/06 00:37:44;;;;;;;0.00;0.00;;;;;;;8.73;89.47;98076.75;4929084;29;20619;-76
2023/11/06 00:40:10;;;;;;;0.00;0.00;;;;;;;8.71;89.39;98068.09;4925819;28;20114;-78
2023/11/06 00:42:36;;;;;;;0.00;0.00;;;;;;;8.66;88.60;98060.03;4934620;29;20119;-77
2023/11/06 00:45:58;;;;;;;0.00;0.00;;;;;;;8.35;89.38;98018.00;4895221;28;20389;-73
2023/11/06 00:48:25;;;;;;;0.00;0.00;;;;;;;8.58;89.41;98058.88;4919233;28;20126;-72
2023/11/06 00:50:56;;;;;;;0.00;0.00;;;;;;;8.65;90.01;98069.34;4927591;28;20038;-75
2023/11/06 00:53:40;;;;;;;0.00;0.00;;;;;;;8.49;89.37;98047.13;4906789;29;20032;-76
2023/11/06 00:56:34;;;;;;;0.00;0.00;;;;;;;8.79;89.46;98078.25;4943843;28;20031;-77
2023/11/06 00:58:59;;;;;;;0.00;0.00;;;;;;;8.47;89.16;98031.09;4940972;28;20055;-73
2023/11/06 01:01:26;;;;;;;0.00;0.00;;;;;;;8.66;89.48;98057.31;4944269;28;20058;-73
2023/11/06 01:04:01;;;;;;;0.00;0.00;;;;;;;8.50;89.27;98035.91;4909044;29;20046;-73
2023/11/06 01:06:42;;;;;;;0.00;0.00;;;;;;;8.51;89.72;98053.88;4926189;29;20031;-75
2023/11/06 01:09:13;;;;;;;0.00;0.00;;;;;;;8.40;89.67;98044.31;4918912;28;20473;-73
2023/11/06 01:11:47;;;;;;;0.00;0.00;;;;;;;8.61;89.31;98073.78;4920898;29;20453;-76
2023/11/06 01:14:14;;;;;;;0.00;0.00;;;;;;;8.66;89.47;98087.28;4939380;28;20019;-76
2023/11/06 01:17:00;;;;;;;0.00;0.00;;;;;;;8.46;89.68;98059.44;4931465;29;20321;-76
2023/11/06 01:19:28;;;;;;;0.00;0.00;;;;;;;8.50;89.77;98084.16;4935980;28;20038;-74
2023/11/06 01:22:00;;;;;;;0.00;0.00;;;;;;;8.56;90.31;98107.41;4931497;28;20051;-77
2023/11/06 01:24:36;;;;;;;;;;;;;;;;;;;;;
2023/11/06 01:27:02;;;;;;;0.00;0.00;;;;;;;8.59;90.55;98087.72;4935836;28;20030;-75
2023/11/06 01:29:28;;;;;;;0.00;0.00;;;;;;;8.84;90.16;98116.25;4941416;28;20349;-75
2023/11/06 01:31:53;;;;;;;0.00;0.00;;;;;;;8.79;89.68;98102.78;4922394;28;20396;-79
2023/11/06 01:34:19;;;;;;;0.00;0.00;;;;;;;8.71;89.91;98100.78;4938741;28;20047;-76
2023/11/06 01:36:44;;;;;;;0.00;0.00;;;;;;;8.70;89.98;98110.88;4929472;28;20027;-77
2023/11/06 01:39:11;;;;;;;0.00;0.00;;;;;;;8.61;90.41;98112.72;4952303;28;20041;-75
2023/11/06 01:41:38;;;;;;;0.00;0.00;;;;;;;8.66;91.18;98130.88;4960971;28;20476;-74
2023/11/06 01:44:17;;;;;;;0.00;0.00;;;;;;;8.52;91.47;98109.94;4937396;28;20027;-76
2023/11/06 01:46:45;;;;;;;0.00;0.00;;;;;;;8.56;90.85;98121.84;4923817;28;20042;-76
2023/11/06 01:49:13;;;;;;;0.05;0.05;;;;;;;8.29;91.46;98089.22;4936395;28;20026;-76
2023/11/06 01:51:40;;;;;;;0.00;0.00;;;;;;;8.48;92.05;98135.38;4938902;28;20035;-75
2023/11/06 01:54:06;;;;;;;0.00;0.00;;;;;;;8.48;92.34;98129.94;4962432;28;21807;-75
2023/11/06 01:56:34;;;;;;;0.00;0.00;;;;;;;8.41;92.26;98124.91;4942305;28;20026;-78
2023/11/06 01:59:01;;;;;;;0.08;0.08;;;;;;;8.36;92.76;98100.50;4938666;28;20031;-76
2023/11/06 02:01:29;;;;;;;0.00;0.00;;;;;;;8.43;92.37;98117.22;4938742;28;20030;-76
2023/11/06 02:03:55;;;;;;;0.00;0.00;;;;;;;8.42;92.52;98104.72;4940272;28;20054;-78
2023/11/06 02:06:23;;;;;;;0.00;0.00;;;;;;;8.31;92.57;98065.19;4929836;28;20026;-76
2023/11/06 02:08:49;;;;;;;0.00;0.00;;;;;;;8.49;92.13;98088.78;4940207;28;20058;-78
2023/11/06 02:11:14;;;;;;;0.00;0.00;;;;;;;8.62;92.25;98119.00;4934163;28;20556;-77
2023/11/06 02:13:40;;;;;;;0.00;0.00;;;;;;;8.64;91.95;98116.75;4926677;29;20031;-77
2023/11/06 02:16:06;;;;;;;0.00;0.00;;;;;;;8.50;91.37;98095.84;4932284;28;20046;-77
2023/11/06 02:18:35;;;;;;;0.00;0.00;;;;;;;8.51;91.32;98107.53;4919739;29;20077;-77
2023/11/06 02:21:00;;;;;;;0.00;0.00;;;;;;;8.39;91.48;98091.72;4934133;28;20113;-77
2023/11/06 02:23:27;;;;;;;0.00;0.00;;;;;;;8.51;91.28;98113.81;4917277;28;20035;-74
2023/11/06 02:25:54;;;;;;;0.00;0.00;;;;;;;8.50;91.61;98123.06;4955744;28;20077;-75
2023/11/06 02:28:19;;;;;;;0.00;0.00;;;;;;;8.38;91.38;98103.72;4945939;28;20121;-75
2023/11/06 02:30:55;;;;;;;;;;;;;;;;;;;;;
2023/11/06 02:33:21;;;;;;;0.00;0.00;;;;;;;8.37;92.00;98115.72;4958053;28;20027;-76
2023/11/06 02:35:50;;;;;;;0.00;0.00;;;;;;;8.18;91.66;98094.13;4946185;28;20023;-76
2023/11/06 02:38:15;;;;;;;0.00;0.00;;;;;;;8.18;92.02;98103.06;4944671;28;20469;-76
2023/11/06 02:40:41;;;;;;;0.00;0.00;;;;;;;8.04;91.86;98099.56;4938055;28;20027;-75
2023/11/06 02:43:17;;;;;;;0.00;0.00;;;;;;;7.89;92.33;98097.22;4916737;28;20034;-77
2023/11/06 02:45:44;;;;;;;0.00;0.00;;;;;;;7.86;92.99;98126.63;4940663;28;20031;-73
2023/11/06 02:48:10;;;;;;;0.00;0.00;;;;;;;7.61;93.68;98103.47;4945184;28;20069;-76
2023/11/06 02:50:49;;;;;;;0.00;0.00;;;;;;;7.57;94.81;98118.00;4928337;28;20540;-74
2023/11/06 02:53:15;;;;;;;0.00;0.00;;;;;;;7.56;95.16;98127.25;4956136;28;20540;-74
2023/11/06 02:55:40;;;;;;;0.00;0.00;;;;;;;7.51;96.35;98142.56;4939171;28;20030;-73
2023/11/06 02:58:06;;;;;;;0.10;0.10;;;;;;;7.38;97.02;98132.47;4952207;28;20094;-76
2023/11/06 03:00:34;;;;;;;0.00;0.00;;;;;;;7.29;97.64;98123.41;4944195;28;20070;-74
2023/11/06 03:03:00;;;;;;;0.00;0.00;;;;;;;7.39;97.92;98142.25;4931334;28;20079;-75
2023/11/06 03:05:25;;;;;;;0.00;0.00;;;;;;;7.40;98.24;98157.44;4949089;28;20035;-79
2023/11/06 03:07:51;;;;;;;0.00;0.00;;;;;;;7.40;98.59;98156.66;4932377;28;20027;-75
2023/11/06 03:10:17;;;;;;;0.00;0.00;;;;;;;7.39;99.21;98158.56;4957663;28;20033;-76
2023/11/06 03:12:42;;;;;;;0.00;0.00;;;;;;;7.37;99.63;98158.03;4959843;28;20031;-77
2023/11/06 03:15:10;;;;;;;0.00;0.00;;;;;;;7.38;100.00;98165.09;4933145;28;20121;-72
2023/11/06 03:17:38;;;;;;;0.00;0.00;;;;;;;7.33;100.00;98163.28;4931631;28;20035;-74
2023/11/06 03:20:19;;;;;;;0.10;0.10;;;;;;;7.26;100.00;98162.88;4943106;28;20473;-77
2023/11/06 03:22:54;;;;;;;0.00;0.00;;;;;;;6.88;100.00;98118.69;4937245;28;20039;-76
2023/11/06 03:25:22;;;;;;;0.00;0.00;;;;;;;6.94;100.00;98139.25;4941936;28;20097;-76
2023/11/06 03:27:50;;;;;;;0.10;0.10;;;;;;;7.06;100.00;98166.75;4946597;28;20434;-76
2023/11/06 03:30:16;;;;;;;0.00;0.00;;;;;;;6.89;100.00;98152.91;4928330;28;20028;-77
2023/11/06 03:32:43;;;;;;;0.00;0.00;;;;;;;6.94;100.00;98177.28;4964884;28;20676;-78
2023/11/06 03:35:08;;;;;;;0.00;0.00;;;;;;;6.94;100.00;98175.38;4912265;28;20546;-78
2023/11/06 03:37:34;;;;;;;0.00;0.00;;;;;;;6.94;100.00;98185.44;4948223;28;20066;-76
2023/11/06 03:39:59;;;;;;;0.00;0.00;;;;;;;6.85;100.00;98174.44;4935452;28;20465;-76
2023/11/06 03:42:24;;;;;;;0.00;0.00;;;;;;;6.88;100.00;98194.75;4938268;28;20023;-77
2023/11/06 03:44:50;;;;;;;0.10;0.10;;;;;;;6.81;100.00;98184.28;4938602;28;20086;-76
2023/11/06 03:47:18;;;;;;;0.00;0.00;;;;;;;6.84;100.00;98191.03;4923651;28;20571;-77
2023/11/06 03:49:43;;;;;;;0.00;0.00;;;;;;;6.85;100.00;98198.06;4956151;28;20115;-77
2023/11/06 03:52:11;;;;;;;0.10;0.10;;;;;;;6.76;100.00;98196.03;4926319;28;20043;-76
2023/11/06 03:54:40;;;;;;;0.00;0.00;;;;;;;6.76;100.00;98198.75;4933638;28;20030;-76
2023/11/06 03:57:05;;;;;;;0.00;0.00;;;;;;;6.86;100.00;98202.41;4931018;28;20126;-76
2023/11/06 03:59:31;;;;;;;0.00;0.00;;;;;;;6.94;100.00;98207.19;4934058;28;20437;-78
2023/11/06 04:01:57;;;;;;;0.00;0.00;;;;;;;6.85;100.00;98195.34;4935632;28;20031;-76
2023/11/06 04:04:22;;;;;;;0.00;0.00;;;;;;;6.90;100.00;98211.59;4925803;28;20134;-76
2023/11/06 04:06:48;;;;;;;0.00;0.00;;;;;;;6.80;100.00;98202.50;4937153;28;20039;-76
2023/11/06 04:09:13;;;;;;;0.00;0.00;;;;;;;6.76;100.00;98209.63;4946632;28;21446;-76
2023/11/06 04:11:40;;;;;;;0.00;0.00;;;;;;;6.82;100.00;98218.50;4931216;29;20746;-77
2023/11/06 04:14:06;;;;;;;0.10;0.10;;;;;;;6.82;100.00;98218.50;4927470;28;20024;-76
2023/11/06 04:16:31;;;;;;;0.00;0.00;;;;;;;6.82;100.00;98221.22;4946859;28;20038;-77
2023/11/06 04:18:57;;;;;;;0.00;0.00;;;;;;;6.87;100.00;98214.91;4964578;28;20022;-76
2023/11/06 04:21:22;;;;;;;0.00;0.00;;;;;;;6.88;100.00;98228.19;4941294;28;20050;-76
2023/11/06 04:23:48;;;;;;;0.00;0.00;;;;;;;6.86;100.00;98226.88;4933388;28;20024;-75
2023/11/06 04:26:13;;;;;;;0.00;0.00;;;;;;;6.72;100.00;98219.47;4937245;28;20038;-77
2023/11/06 04:28:41;;;;;;;0.00;0.00;;;;;;;6.73;100.00;98233.84;4939037;28;20019;-77
2023/11/06 04:31:06;;;;;;;0.03;0.03;;;;;;;6.61;100.00;98234.28;4943423;28;20022;-75
2023/11/06 04:33:32;;;;;;;0.00;0.00;;;;;;;6.55;100.00;98240.88;4936463;28;20023;-76
2023/11/06 04:35:59;;;;;;;0.00;0.00;;;;;;;6.44;100.00;98243.75;4930021;28;20039;-75
2023/11/06 04:38:24;;;;;;;0.00;0.00;;;;;;;6.36;100.00;98249.81;4917943;28;20027;-76
2023/11/06 04:40:50;;;;;;;0.00;0.00;;;;;;;6.34;100.00;98259.34;4932973;28;20050;-76
2023/11/06 04:43:16;;;;;;;0.00;0.00;;;;;;;6.28;100.00;98253.19;4930269;28;20019;-78
2023/11/06 04:45:42;;;;;;;0.00;0.00;;;;;;;6.15;100.00;98249.28;4933127;28;20452;-77
2023/11/06 04:48:07;;;;;;;0.10;0.10;;;;;;;6.23;100.00;98261.38;4923216;28;20031;-78
2023/11/06 04:50:33;;;;;;;0.00;0.00;;;;;;;6.08;100.00;98255.03;4931188;28;20031;-78
2023/11/06 04:53:00;;;;;;;0.00;0.00;;;;;;;6.13;100.00;98259.59;4926159;28;20035;-76
2023/11/06 04:55:25;;;;;;;0.00;0.00;;;;;;;6.03;100.00;98252.41;4929570;28;20038;-75
2023/11/06 04:58:08;;;;;;;0.00;0.00;;;;;;;6.05;100.00;98269.19;4940399;28;20027;-79
2023/11/06 05:00:33;;;;;;;0.00;0.00;;;;;;;5.97;100.00;98275.25;4961756;28;20039;-77
2023/11/06 05:02:59;;;;;;;0.00;0.00;;;;;;;5.75;100.00;98251.31;4969365;28;20076;-78
2023/11/06 05:05:24;;;;;;;0.00;0.00;;;;;;;5.98;100.00;98281.50;4930904;28;20035;-77
2023/11/06 05:07:50;;;;;;;0.00;0.00;;;;;;;5.89;100.00;98284.00;4914679;28;21109;-77
2023/11/06 05:10:15;;;;;;;0.00;0.00;;;;;;;5.90;100.00;98299.19;4919692;29;20043;-75
2023/11/06 05:12:41;;;;;;;0.00;0.00;;;;;;;5.72;100.00;98274.41;4961200;28;20031;-74
2023/11/06 05:15:07;;;;;;;0.00;0.00;;;;;;;5.93;100.00;98307.56;4938511;28;20392;-75
2023/11/06 05:17:32;;;;;;;0.00;0.00;;;;;;;5.96;100.00;98314.31;4968131;28;20031;-74
2023/11/06 05:19:58;;;;;;;0.00;0.00;;;;;;;5.95;100.00;98309.97;4929571;28;20042;-74
2023/11/06 05:22:23;;;;;;;0.00;0.00;;;;;;;5.95;100.00;98326.25;4935081;28;20058;-74
2023/11/06 05:24:49;;;;;;;0.00;0.00;;;;;;;5.88;100.00;98315.72;4917474;28;20104;-77
2023/11/06 05:27:14;;;;;;;0.00;0.00;;;;;;;5.79;100.00;98322.09;4919091;29;20027;-76
2023/11/06 05:29:40;;;;;;;0.00;0.00;;;;;;;5.62;100.00;98307.03;4911311;28;20503;-75
2023/11/06 05:32:06;;;;;;;0.00;0.00;;;;;;;5.71;100.00;98337.03;4952512;28;20473;-77
2023/11/06 05:34:32;;;;;;;0.00;0.00;;;;;;;5.74;100.00;98342.72;4940666;28;20034;-76
2023/11/06 05:37:01;;;;;;;0.00;0.00;;;;;;;5.62;100.00;98326.00;4933928;28;20026;-76
2023/11/06 05:39:27;;;;;;;0.05;0.05;;;;;;;5.71;100.00;98348.72;4923587;28;20123;-77
2023/11/06 05:42:16;;;;;;;0.00;0.00;;;;;;;5.49;100.00;98307.69;4936219;28;20035;-77
2023/11/06 05:44:43;;;;;;;0.00;0.00;;;;;;;5.59;100.00;98319.28;4946481;28;20126;-77
2023/11/06 05:47:12;;;;;;;0.00;0.00;;;;;;;5.82;100.00;98354.84;4962037;28;20857;-78
2023/11/06 05:49:42;;;;;;;0.00;0.00;;;;;;;5.81;100.00;98355.97;4916840;29;20039;-75
2023/11/06 05:52:08;;;;;;;0.00;0.00;;;;;;;5.71;100.00;98351.44;4931538;28;20479;-77
2023/11/06 05:54:33;;;;;;;0.00;0.00;;;;;;;5.57;100.00;98343.13;4942008;28;20027;-75
2023/11/06 05:57:07;;;;;;;0.00;0.00;;;;;;;5.58;100.00;98354.81;4930060;28;20031;-77
2023/11/06 05:59:32;;;;;;;0.00;0.00;;;;;;;5.56;100.00;98351.53;4922426;28;20763;-76
2023/11/06 06:01:58;;;;;;;0.00;0.00;;;;;;;5.56;100.00;98362.38;4950289;28;20035;-74
2023/11/06 06:04:24;;;;;;;0.10;0.10;;;;;;;5.49;100.00;98361.91;4932636;28;20023;-76
2023/11/06 06:06:54;;;;;;;0.10;0.10;;;;;;;5.47;100.00;98370.31;4917363;28;20034;-76
2023/11/06 06:09:21;;;;;;;0.10;0.10;;;;;;;5.38;100.00;98370.13;4960963;28;20639;-77
2023/11/06 06:11:47;;;;;;;0.00;0.00;;;;;;;5.32;100.00;98367.75;4952068;28;20034;-76
2023/11/06 06:14:12;;;;;;;0.00;0.00;;;;;;;5.36;100.00;98372.31;4912202;28;20165;-76
2023/11/06 06:16:38;;;;;;;0.00;0.00;;;;;;;5.31;100.00;98369.63;4939605;28;20109;-78
2023/11/06 06:19:06;;;;;;;0.00;0.00;;;;;;;5.20;100.00;98359.97;4921173;28;20043;-79
2023/11/06 06:21:32;;;;;;;0.00;0.00;;;;;;;5.20;100.00;98381.63;4954120;28;20043;-72
2023/11/06 06:23:57;;;;;;;0.00;0.00;;;;;;;5.12;100.00;98384.94;4950994;28;20035;-76
2023/11/06 06:26:24;;;;;;;0.00;0.00;;;;;;;5.06;100.00;98376.81;4925442;28;20034;-76
2023/11/06 06:28:53;;;;;;;0.00;0.00;;;;;;;5.11;100.00;98394.13;4956203;28;20031;-77
2023/11/06 06:31:18;;;;;;;0.10;0.10;;;;;;;5.06;100.00;98395.78;4917193;28;20031;-75
2023/11/06 06:33:46;;;;;;;0.00;0.00;;;;;;;5.14;100.00;98404.41;4926910;29;20492;-77
2023/11/06 06:36:12;;;;;;;0.00;0.00;;;;;;;5.10;100.00;98392.53;4922915;28;20090;-73
2023/11/06 06:38:37;;;;;;;0.00;0.00;;;;;;;5.18;100.00;98400.88;4952714;28;20035;-76
2023/11/06 06:41:03;;;;;;;0.00;0.00;;;;;;;5.17;100.00;98398.44;4930642;28;20027;-76
2023/11/06 06:43:29;;;;;;;0.00;0.00;;;;;;;5.15;100.00;98408.75;4928855;28;20023;-75
2023/11/06 06:45:55;;;;;;;0.00;0.00;;;;;;;5.02;100.00;98394.75;4927895;29;20062;-78
2023/11/06 06:48:23;;;;;;;0.00;0.00;;;;;;;4.92;100.00;98378.53;4936622;28;20586;-77
2023/11/06 06:50:52;;;;;;;0.00;0.00;;;;;;;4.99;100.00;98397.97;4964767;28;20031;-77
2023/11/06 06:53:17;;;;;;;0.00;0.00;;;;;;;5.00;100.00;98407.75;4930721;28;20117;-78
2023/11/06 06:55:45;;;;;;;0.10;0.10;;;;;;;5.04;100.00;98419.66;4953000;28;20118;-74
2023/11/06 06:58:11;;;;;;;0.00;0.00;;;;;;;4.95;100.00;98418.63;4945371;28;20121;-77
2023/11/06 07:00:37;;;;;;;0.00;0.00;;;;;;;5.00;100.00;98437.53;4953081;28;20118;-74
2023/11/06 07:03:05;;;;;;;0.00;0.00;;;;;;;5.06;100.00;98431.00;4911858;28;20030;-76
2023/11/06 07:05:34;;;;;;;0.00;0.00;;;;;;;5.09;100.00;98435.06;4927289;28;20031;-74
2023/11/06 07:08:04;;;;;;;0.00;0.00;;;;;;;5.04;100.00;98425.06;4934265;28;20023;-74
2023/11/06 07:10:33;;;;;;;0.10;0.10;;;;;;;5.07;100.00;98429.91;4954034;28;20121;-73
2023/11/06 07:12:59;;;;;;;0.10;0.10;;;;;;;5.02;100.00;98423.72;4944028;28;20409;-75
2023/11/06 07:15:25;;;;;;;0.10;0.10;;;;;;;5.07;100.00;98431.84;4928842;29;20822;-76
2023/11/06 07:17:52;;;;;;;0.10;0.10;;;;;;;4.99;100.00;98422.38;4950334;28;20023;-76
2023/11/06 07:20:21;;;;;;;0.00;0.00;;;;;;;5.07;100.00;98442.66;4923423;29;20119;-76
2023/11/06 07:22:46;;;;;;;0.00;0.00;;;;;;;5.11;100.00;98451.03;4931245;28;20197;-72
2023/11/06 07:25:14;;;;;;;0.00;0.00;;;;;;;5.15;100.00;98465.66;4944292;28;20212;-77
2023/11/06 07:27:40;;;;;;;0.00;0.00;;;;;;;5.17;100.00;98468.88;4956656;28;20027;-75
2023/11/06 07:30:07;;;;;;;0.10;0.10;;;;;;;5.07;100.00;98462.44;4940761;28;20026;-75
2023/11/06 07:32:33;;;;;;;0.00;0.00;;;;;;;5.22;100.00;98472.38;4955295;28;20149;-73
2023/11/06 07:34:58;;;;;;;0.00;0.00;;;;;;;5.22;100.00;98477.81;4943131;28;20035;-72
2023/11/06 07:37:24;;;;;;;0.00;0.00;;;;;;;5.34;100.00;98472.03;4958138;28;20027;-73
2023/11/06 07:39:49;;;;;;;0.00;0.00;;;;;;;5.48;100.00;98495.84;4913446;28;21383;-72
2023/11/06 07:42:15;;;;;;;0.00;0.00;;;;;;;5.57;100.00;98505.00;4925556;28;20589;-73
2023/11/06 07:44:41;;;;;;;0.00;0.00;;;;;;;5.60;100.00;98493.59;4956176;28;20117;-73
2023/11/06 07:47:06;;;;;;;0.00;0.00;;;;;;;5.71;100.00;98511.44;4958675;28;20027;-73
2023/11/06 07:49:32;;;;;;;0.00;0.00;;;;;;;5.76;100.00;98503.25;4931327;28;20030;-72
2023/11/06 07:51:57;;;;;;;0.00;0.00;;;;;;;5.89;100.00;98515.38;4920886;28;20027;-73
2023/11/06 07:54:23;;;;;;;0.00;0.00;;;;;;;5.94;100.00;98518.06;4931123;28;20031;-72
2023/11/06 07:56:50;;;;;;;0.00;0.00;;;;;;;6.03;100.00;98526.47;4917141;28;20035;-73
2023/11/06 07:59:16;;;;;;;0.00;0.00;;;;;;;6.06;100.00;98520.47;4941255;28;20524;-74
2023/11/06 08:01:41;;;;;;;0.00;0.00;;;;;;;6.17;100.00;98534.75;4932836;28;20113;-75
2023/11/06 08:04:07;;;;;;;0.00;0.00;;;;;;;6.17;100.00;98528.53;4943496;28;20031;-72
2023/11/06 08:06:33;;;;;;;0.00;0.00;;;;;;;6.23;100.00;98530.09;4924117;28;20051;-73
2023/11/06 08:08:59;;;;;;;0.00;0.00;;;;;;;6.22;100.00;98525.75;4959919;28;20073;-74
2023/11/06 08:11:25;;;;;;;0.00;0.00;;;;;;;6.43;100.00;98548.94;4930454;28;20441;-71
2023/11/06 08:13:51;;;;;;;0.00;0.00;;;;;;;6.51;100.00;98552.13;4942105;28;20035;-72
2023/11/06 08:16:16;;;;;;;0.00;0.00;;;;;;;6.60;100.00;98559.38;4942880;28;20541;-71
2023/11/06 08:18:42;;;;;;;0.00;0.00;;;;;;;6.71;100.00;98565.53;4934667;28;20062;-73
2023/11/06 08:21:09;;;;;;;0.00;0.00;;;;;;;6.89;100.00;98576.78;4941454;28;20164;-72
2023/11/06 08:23:35;;;;;;;0.00;0.00;;;;;;;7.09;100.00;98582.00;4927980;28;20432;-72
2023/11/06 08:26:00;;;;;;;0.00;0.00;;;;;;;7.37;100.00;98576.78;4928704;28;20190;-71
2023/11/06 08:28:26;;;;;;;0.10;0.10;;;;;;;7.96;100.00;98577.41;4941374;28;20034;-73
2023/11/06 08:30:52;;;;;;;0.00;0.00;;;;;;;9.21;100.00;98583.31;4946800;28;20465;-73
2023/11/06 08:33:18;;;;;;;0.00;0.00;;;;;;;10.04;100.00;98576.13;4952610;28;20023;-73
2023/11/06 08:35:45;;;;;;;0.10;0.10;;;;;;;10.13;93.56;98571.53;4934151;28;20030;-72
2023/11/06 08:38:13;;;;;;;0.00;0.00;;;;;;;10.26;93.80;98581.63;4934037;28;20041;-72
2023/11/06 08:40:39;;;;;;;0.00;0.00;;;;;;;11.11;88.38;98570.00;4942145;28;20073;-71
2023/11/06 08:43:05;;;;;;;0.00;0.00;;;;;;;11.84;82.26;98577.78;4941223;28;20438;-72
2023/11/06 08:45:31;;;;;;;0.00;0.00;;;;;;;12.19;79.14;98585.25;4934079;28;20500;-71
2023/11/06 08:47:57;;;;;;;0.00;0.00;;;;;;;12.30;77.41;98583.00;4951914;28;20027;-72
2023/11/06 08:50:22;;;;;;;0.00;0.00;;;;;;;12.59;76.16;98585.09;4953655;28;20586;-72
2023/11/06 08:52:48;;;;;;;0.03;0.03;;;;;;;13.51;73.63;98600.38;4917224;28;20038;-72
2023/11/06 08:55:13;;;;;;;0.00;0.00;;;;;;;14.28;68.49;98604.91;4941796;28;20444;-72
2023/11/06 08:57:39;;;;;;;0.00;0.00;;;;;;;14.66;66.80;98598.50;4920837;28;20354;-73
2023/11/06 09:00:08;;;;;;;0.00;0.00;;;;;;;15.30;64.18;98607.34;4946383;28;20034;-73
2023/11/06 09:02:34;;;;;;;0.00;0.00;;;;;;;16.01;61.10;98608.09;4916219;28;20041;-74
2023/11/06 09:05:00;;;;;;;0.00;0.00;;;;;;;17.20;58.84;98620.59;4931531;28;20019;-74
2023/11/06 09:07:26;;;;;;;0.00;0.00;;;;;;;18.44;54.73;98622.31;4946014;28;20054;-72
2023/11/06 09:09:52;;;;;;;0.00;0.00;;;;;;;19.21;51.81;98631.78;4948622;28;20118;-72
2023/11/06 09:12:17;;;;;;;0.00;0.00;;;;;;;19.19;49.78;98632.16;4946291;28;20549;-73
2023/11/06 09:14:43;;;;;;;0.00;0.00;;;;;;;19.15;49.12;98641.59;4929155;29;20402;-73
2023/11/06 09:17:08;;;;;;;0.00;0.00;;;;;;;19.19;48.76;98643.25;4929749;28;20046;-72
2023/11/06 09:19:34;;;;;;;0.00;0.00;;;;;;;19.24;48.06;98649.66;4929544;28;20085;-73
2023/11/06 09:21:59;;;;;;;0.00;0.00;;;;;;;19.14;48.50;98637.19;4928631;28;20146;-72
2023/11/06 09:24:28;;;;;;;0.00;0.00;;;;;;;19.94;47.31;98659.59;4918933;28;20023;-73
2023/11/06 09:26:54;;;;;;;0.00;0.00;;;;;;;20.81;45.12;98655.28;4945149;28;20469;-72
2023/11/06 09:29:19;;;;;;;0.00;0.00;;;;;;;22.00;43.44;98662.84;4929968;28;20053;-71
2023/11/06 09:31:45;;;;;;;0.00;0.00;;;;;;;22.64;41.76;98673.63;4940994;28;20037;-72
2023/11/06 09:34:11;;;;;;;0.00;0.00;;;;;;;23.18;40.14;98671.06;4918913;28;20092;-72
2023/11/06 09:36:36;;;;;;;0.00;0.00;;;;;;;22.75;39.04;98682.03;4940317;28;20031;-71
2023/11/06 09:39:02;;;;;;;0.00;0.00;;;;;;;22.35;39.23;98686.56;4947140;28;20039;-72
2023/11/06 09:41:27;;;;;;;0.00;0.00;;;;;;;22.25;39.57;98690.06;4921723;28;20031;-71
2023/11/06 09:43:53;;;;;;;0.00;0.00;;;;;;;22.36;38.90;98692.97;4964506;28;20022;-73
2023/11/06 09:46:18;;;;;;;0.00;0.00;;;;;;;22.83;38.49;98674.50;4931092;28;20073;-73
2023/11/06 09:48:46;;;;;;;0.00;0.00;;;;;;;24.29;36.29;98702.31;4923573;28;20038;-72
2023/11/06 09:51:13;;;;;;;0.00;0.00;;;;;;;25.52;33.85;98697.88;4937065;28;20039;-74
2023/11/06 09:53:40;;;;;;;0.00;0.00;;;;;;;25.64;33.42;98704.22;4942751;28;20061;-73
2023/11/06 09:56:10;;;;;;;0.00;0.00;;;;;;;25.60;32.70;98718.25;4929610;28;20031;-74
2023/11/06 09:58:39;;;;;;;0.00;0.00;;;;;;;25.01;33.83;98710.50;4953552;28;20046;-74
2023/11/06 10:01:11;;;;;;;0.00;0.00;;;;;;;24.66;33.78;98718.63;4937688;28;20027;-73
2023/11/06 10:03:38;;;;;;;0.00;0.00;;;;;;;24.83;34.67;98708.59;4939585;28;20106;-72
2023/11/06 10:06:05;;;;;;;0.00;0.00;;;;;;;25.02;33.92;98720.50;4923033;28;20102;-73
2023/11/06 10:08:32;;;;;;;0.00;0.00;;;;;;;26.10;33.16;98728.31;4948149;28;20039;-73
2023/11/06 10:10:59;;;;;;;0.00;0.00;;;;;;;27.47;30.46;98735.31;4945494;28;20046;-76
2023/11/06 10:13:25;;;;;;;0.00;0.00;;;;;;;28.27;29.41;98744.13;4943684;28;20070;-72
2023/11/06 10:15:51;;;;;;;0.00;0.00;;;;;;;28.33;28.57;98744.44;4962631;28;20061;-73
2023/11/06 10:18:19;;;;;;;0.00;0.00;;;;;;;29.11;27.91;98752.66;4911633;28;20389;-74
2023/11/06 10:20:49;;;;;;;0.00;0.00;;;;;;;28.68;26.98;98756.28;4939444;28;20051;-75
2023/11/06 10:23:25;;;;;;;0.00;0.00;;;;;;;29.07;26.65;98749.91;4948089;28;20478;-73
2023/11/06 10:25:56;;;;;;;0.00;0.00;;;;;;;30.15;26.44;98743.16;4939928;28;20118;-75
2023/11/06 10:28:22;;;;;;;0.00;0.00;;;;;;;30.33;26.07;98751.97;4938493;28;20101;-73
2023/11/06 10:30:52;;;;;;;0.00;0.00;;;;;;;29.97;25.85;98761.28;4938190;28;20807;-73
2023/11/06 10:33:18;;;;;;;0.00;0.00;;;;;;;28.64;27.12;98766.81;4959193;28;20117;-72
2023/11/06 10:35:45;;;;;;;0.00;0.00;;;;;;;28.00;28.50;98747.75;4921948;28;20030;-72
2023/11/06 10:38:33;;;;;;;0.00;0.00;;;;;;;28.16;27.91;98761.16;4942747;28;20386;-73
2023/11/06 10:41:25;;;;;;;0.00;0.00;;;;;;;29.50;26.58;98773.56;4937137;28;20075;-73
2023/11/06 10:44:00;;;;;;;0.00;0.00;;;;;;;29.41;26.46;98767.75;4911898;28;20607;-72
2023/11/06 10:46:31;;;;;;;0.00;0.00;;;;;;;28.79;27.16;98767.34;4944739;28;20023;-73
2023/11/06 10:49:12;;;;;;;0.00;0.00;;;;;;;28.86;27.11;98770.03;4941539;28;20031;-72
2023/11/06 10:51:41;;;;;;;0.00;0.00;;;;;;;29.71;25.81;98768.69;4946054;28;20026;-71
2023/11/06 10:54:08;;;;;;;0.00;0.00;;;;;;;29.99;25.23;98761.63;4937291;28;20031;-73
2023/11/06 10:56:34;;;;;;;0.00;0.00;;;;;;;29.82;24.91;98755.19;4945959;28;20126;-73
2023/11/06 10:59:01;;;;;;;0.00;0.00;;;;;;;29.66;25.55;98766.38;4918058;28;20138;-72
2023/11/06 11:01:28;;;;;;;0.00;0.00;;;;;;;29.58;25.55;98777.03;4946825;28;20041;-74
2023/11/06 11:03:54;;;;;;;0.00;0.00;;;;;;;28.89;26.28;98766.34;4949213;28;20357;-73
2023/11/06 11:06:22;;;;;;;0.00;0.00;;;;;;;28.39;26.96;98768.81;4942052;28;20034;-72
2023/11/06 11:08:51;;;;;;;0.00;0.00;;;;;;;27.73;27.80;98784.25;4912678;28;20378;-73
2023/11/06 11:11:17;;;;;;;0.00;0.00;;;;;;;28.44;26.99;98778.75;4978172;28;20042;-72
2023/11/06 11:13:43;;;;;;;0.00;0.00;;;;;;;30.41;25.17;98775.13;4927713;28;20038;-73
2023/11/06 11:16:37;;;;;;;0.00;0.00;;;;;;;31.76;23.60;98783.13;4930717;28;20814;-73
2023/11/06 11:19:24;;;;;;;0.00;0.00;;;;;;;32.94;22.39;98779.69;4950333;28;20041;-73
2023/11/06 11:22:00;;;;;;;0.00;0.00;;;;;;;33.50;21.23;98787.34;4974425;28;20178;-73
2023/11/06 11:24:41;;;;;;;0.00;0.00;;;;;;;33.81;20.96;98783.75;4924952;28;20035;-72
2023/11/06 11:27:11;;;;;;;0.00;0.00;;;;;;;33.46;20.89;98778.19;4944397;28;20031;-74
2023/11/06 11:29:58;;;;;;;0.00;0.00;;;;;;;32.73;21.76;98776.38;4940967;28;20035;-73
2023/11/06 11:32:30;;;;;;;0.00;0.00;;;;;;;33.06;20.94;98776.03;4942480;28;20027;-74
2023/11/06 11:34:57;;;;;;;0.00;0.00;;;;;;;32.25;21.95;98775.56;4957140;28;20149;-72
2023/11/06 11:37:26;;;;;;;0.00;0.00;;;;;;;28.82;25.17;98774.91;4931248;28;20041;-72
2023/11/06 11:39:51;;;;;;;0.00;0.00;;;;;;;26.33;27.96;98766.94;4943592;28;20042;-73
2023/11/06 11:42:17;;;;;;;0.00;0.00;;;;;;;23.31;31.91;98765.53;4948193;28;20386;-73